sensor_id;sensor_type;location;lat;lon;timestamp;pressure;altitude;pressure_sealevel;temperature;humidity
48964;BME280;34776;48.180;16.420;2023-08-01T00:01:01;99046.59;;;22.18;61.94
48964;BME280;34776;48.180;16.420;2023-08-01T00:03:27;99041.53;;;22.15;62.00
48964;BME280;34776;48.180;16.420;2023-08-01T00:05:52;99037.81;;;22.16;61.93
48964;BME280;34776;48.180;16.420;2023-08-01T00:08:20;99036.47;;;22.12;61.87
48964;BME280;34776;48.180;16.420;2023-08-01T00:10:45;99034.09;;;22.08;61.87
48964;BME280;34776;48.180;16.420;2023-08-01T00:13:10;99028.69;;;22.08;61.98
48964;BME280;34776;48.180;16.420;2023-08-01T00:15:36;99020.91;;;22.05;62.39
48964;BME280;34776;48.180;16.420;2023-08-01T00:18:01;99016.88;;;22.01;62.48
48964;BME280;34776;48.180;16.420;2023-08-01T00:20:27;99005.69;;;21.96;62.56
48964;BME280;34776;48.180;16.420;2023-08-01T00:22:52;99013.66;;;21.98;62.50
48964;BME280;34776;48.180;16.420;2023-08-01T00:25:18;99000.13;;;21.98;62.69
48964;BME280;34776;48.180;16.420;2023-08-01T00:27:43;98997.41;;;21.98;62.75
48964;BME280;34776;48.180;16.420;2023-08-01T00:30:09;98997.25;;;21.99;62.58
48964;BME280;34776;48.180;16.420;2023-08-01T00:32:35;98996.59;;;21.97;62.77
48964;BME280;34776;48.180;16.420;2023-08-01T00:35:01;98988.78;;;21.94;62.98
48964;BME280;34776;48.180;16.420;2023-08-01T00:37:26;98976.31;;;21.85;62.90
48964;BME280;34776;48.180;16.420;2023-08-01T00:39:51;98978.72;;;21.80;63.25
48964;BME280;34776;48.180;16.420;2023-08-01T00:42:17;98972.28;;;21.73;63.41
48964;BME280;34776;48.180;16.420;2023-08-01T00:44:42;98963.16;;;21.65;63.82
48964;BME280;34776;48.180;16.420;2023-08-01T00:47:08;98949.97;;;21.62;63.75
48964;BME280;34776;48.180;16.420;2023-08-01T00:49:34;98945.75;;;21.60;63.82
48964;BME280;34776;48.180;16.420;2023-08-01T00:52:00;98941.56;;;21.57;63.84
48964;BME280;34776;48.180;16.420;2023-08-01T00:54:25;98936.47;;;21.54;64.13
48964;BME280;34776;48.180;16.420;2023-08-01T00:56:51;98939.69;;;21.49;64.48
48964;BME280;34776;48.180;16.420;2023-08-01T00:59:16;98942.56;;;21.48;64.37
48964;BME280;34776;48.180;16.420;2023-08-01T01:01:41;98940.03;;;21.46;64.59
48964;BME280;34776;48.180;16.420;2023-08-01T01:04:08;98942.91;;;21.45;64.88
48964;BME280;34776;48.180;16.420;2023-08-01T01:06:39;98937.84;;;21.42;64.99
48964;BME280;34776;48.180;16.420;2023-08-01T01:09:16;98941.88;;;21.38;65.38
48964;BME280;34776;48.180;16.420;2023-08-01T01:11:42;98934.78;;;21.37;65.10
48964;BME280;34776;48.180;16.420;2023-08-01T01:14:07;98931.56;;;21.33;65.48
48964;BME280;34776;48.180;16.420;2023-08-01T01:16:33;98932.06;;;21.28;65.58
48964;BME280;34776;48.180;16.420;2023-08-01T01:18:58;98928.53;;;21.20;65.96
48964;BME280;34776;48.180;16.420;2023-08-01T01:21:25;98924.63;;;21.14;66.14
48964;BME280;34776;48.180;16.420;2023-08-01T01:23:50;98924.97;;;21.11;66.22
48964;BME280;34776;48.180;16.420;2023-08-01T01:26:18;98923.47;;;21.08;66.75
48964;BME280;34776;48.180;16.420;2023-08-01T01:28:48;98927.84;;;21.09;66.66
48964;BME280;34776;48.180;16.420;2023-08-01T01:31:15;98927.69;;;21.11;66.69
48964;BME280;34776;48.180;16.420;2023-08-01T01:33:40;98923.94;;;21.12;66.63
48964;BME280;34776;48.180;16.420;2023-08-01T01:36:06;98922.59;;;21.16;66.70
48964;BME280;34776;48.180;16.420;2023-08-01T01:38:31;98923.63;;;21.15;66.38
48964;BME280;34776;48.180;16.420;2023-08-01T01:40:57;98916.88;;;21.19;66.68
48964;BME280;34776;48.180;16.420;2023-08-01T01:43:22;98919.91;;;21.24;66.37
48964;BME280;34776;48.180;16.420;2023-08-01T01:45:47;98907.06;;;21.26;66.26
48964;BME280;34776;48.180;16.420;2023-08-01T01:48:13;98904.22;;;21.28;66.19
48964;BME280;34776;48.180;16.420;2023-08-01T01:50:38;98901.34;;;21.29;66.33
48964;BME280;34776;48.180;16.420;2023-08-01T01:53:03;98901.00;;;21.33;65.96
48964;BME280;34776;48.180;16.420;2023-08-01T01:55:29;98906.06;;;21.36;66.17
48964;BME280;34776;48.180;16.420;2023-08-01T01:57:54;98899.31;;;21.40;66.06
48964;BME280;34776;48.180;16.420;2023-08-01T02:00:19;98902.72;;;21.42;66.05
48964;BME280;34776;48.180;16.420;2023-08-01T02:02:45;98900.66;;;21.44;65.87
48964;BME280;34776;48.180;16.420;2023-08-01T02:05:10;98897.63;;;21.47;66.03
48964;BME280;34776;48.180;16.420;2023-08-01T02:07:35;98895.59;;;21.49;65.83
48964;BME280;34776;48.180;16.420;2023-08-01T02:10:01;98882.59;;;21.53;65.81
48964;BME280;34776;48.180;16.420;2023-08-01T02:12:27;98878.69;;;21.55;65.45
48964;BME280;34776;48.180;16.420;2023-08-01T02:14:53;98874.97;;;21.56;65.43
48964;BME280;34776;48.180;16.420;2023-08-01T02:17:18;98865.50;;;21.60;65.71
48964;BME280;34776;48.180;16.420;2023-08-01T02:19:43;98861.63;;;21.63;65.44
48964;BME280;34776;48.180;16.420;2023-08-01T02:22:08;98853.50;;;21.63;65.39
48964;BME280;34776;48.180;16.420;2023-08-01T02:24:35;98860.44;;;21.65;65.43
48964;BME280;34776;48.180;16.420;2023-08-01T02:27:00;98861.94;;;21.68;65.47
48964;BME280;34776;48.180;16.420;2023-08-01T02:29:26;98860.75;;;21.71;65.37
48964;BME280;34776;48.180;16.420;2023-08-01T02:31:51;98863.44;;;21.71;65.21
48964;BME280;34776;48.180;16.420;2023-08-01T02:34:16;98860.75;;;21.71;65.27
48964;BME280;34776;48.180;16.420;2023-08-01T02:36:42;98857.03;;;21.72;65.54
48964;BME280;34776;48.180;16.420;2023-08-01T02:39:07;98865.16;;;21.72;65.63
48964;BME280;34776;48.180;16.420;2023-08-01T02:41:32;98861.41;;;21.73;65.39
48964;BME280;34776;48.180;16.420;2023-08-01T02:43:58;98864.13;;;21.73;65.34
48964;BME280;34776;48.180;16.420;2023-08-01T02:46:23;98859.06;;;21.69;65.28
48964;BME280;34776;48.180;16.420;2023-08-01T02:48:48;98861.56;;;21.71;65.19
48964;BME280;34776;48.180;16.420;2023-08-01T02:51:14;98861.41;;;21.73;65.32
48964;BME280;34776;48.180;16.420;2023-08-01T02:53:39;98863.78;;;21.76;65.01
48964;BME280;34776;48.180;16.420;2023-08-01T02:56:08;98858.69;;;21.81;64.74
48964;BME280;34776;48.180;16.420;2023-08-01T02:58:35;98845.84;;;21.83;64.73
48964;BME280;34776;48.180;16.420;2023-08-01T03:01:01;98849.56;;;21.82;64.56
48964;BME280;34776;48.180;16.420;2023-08-01T03:03:26;98844.16;;;21.82;64.70
48964;BME280;34776;48.180;16.420;2023-08-01T03:05:52;98843.97;;;21.83;64.97
48964;BME280;34776;48.180;16.420;2023-08-01T03:08:17;98843.97;;;21.83;64.52
48964;BME280;34776;48.180;16.420;2023-08-01T03:10:42;98839.41;;;21.84;64.64
48964;BME280;34776;48.180;16.420;2023-08-01T03:13:08;98828.59;;;21.84;64.54
48964;BME280;34776;48.180;16.420;2023-08-01T03:15:33;98825.22;;;21.82;64.54
48964;BME280;34776;48.180;16.420;2023-08-01T03:17:58;98830.63;;;21.82;64.44
48964;BME280;34776;48.180;16.420;2023-08-01T03:20:23;98824.88;;;21.85;64.77
48964;BME280;34776;48.180;16.420;2023-08-01T03:22:49;98828.59;;;21.84;64.57
48964;BME280;34776;48.180;16.420;2023-08-01T03:25:14;98819.81;;;21.82;64.90
48964;BME280;34776;48.180;16.420;2023-08-01T03:27:40;98824.19;;;21.83;64.69
48964;BME280;34776;48.180;16.420;2023-08-01T03:30:05;98818.13;;;21.81;64.68
48964;BME280;34776;48.180;16.420;2023-08-01T03:32:34;98814.75;;;21.79;64.60
48964;BME280;34776;48.180;16.420;2023-08-01T03:35:00;98812.03;;;21.79;64.65
48964;BME280;34776;48.180;16.420;2023-08-01T03:37:26;98817.81;;;21.76;64.87
48964;BME280;34776;48.180;16.420;2023-08-01T03:39:52;98808.00;;;21.75;64.92
48964;BME280;34776;48.180;16.420;2023-08-01T03:42:17;98807.84;;;21.76;65.02
48964;BME280;34776;48.180;16.420;2023-08-01T03:44:43;98807.66;;;21.78;65.19
48964;BME280;34776;48.180;16.420;2023-08-01T03:47:08;98813.06;;;21.78;64.90
48964;BME280;34776;48.180;16.420;2023-08-01T03:49:33;98827.28;;;21.80;64.89
48964;BME280;34776;48.180;16.420;2023-08-01T03:51:59;98829.44;;;21.84;64.97
48964;BME280;34776;48.180;16.420;2023-08-01T03:54:24;98829.91;;;21.88;64.80
48964;BME280;34776;48.180;16.420;2023-08-01T03:56:49;98830.06;;;21.95;64.65
48964;BME280;34776;48.180;16.420;2023-08-01T03:59:15;98828.50;;;22.00;64.45
48964;BME280;34776;48.180;16.420;2023-08-01T04:01:41;98831.88;;;22.02;64.56
48964;BME280;34776;48.180;16.420;2023-08-01T04:04:07;98834.41;;;22.04;64.77
48964;BME280;34776;48.180;16.420;2023-08-01T04:06:32;98842.22;;;21.99;64.78
48964;BME280;34776;48.180;16.420;2023-08-01T04:08:58;98844.09;;;21.90;65.26
48964;BME280;34776;48.180;16.420;2023-08-01T04:11:25;98842.78;;;21.86;65.50
48964;BME280;34776;48.180;16.420;2023-08-01T04:13:51;98843.13;;;21.83;65.88
48964;BME280;34776;48.180;16.420;2023-08-01T04:16:16;98845.84;;;21.75;66.02
48964;BME280;34776;48.180;16.420;2023-08-01T04:18:41;98846.22;;;21.72;66.22
48964;BME280;34776;48.180;16.420;2023-08-01T04:21:08;98847.22;;;21.71;66.49
48964;BME280;34776;48.180;16.420;2023-08-01T04:23:34;98853.31;;;21.73;66.26
48964;BME280;34776;48.180;16.420;2023-08-01T04:25:59;98837.22;;;21.79;66.09
48964;BME280;34776;48.180;16.420;2023-08-01T04:28:25;98840.94;;;21.86;65.60
48964;BME280;34776;48.180;16.420;2023-08-01T04:30:52;98836.66;;;21.92;65.64
48964;BME280;34776;48.180;16.420;2023-08-01T04:33:17;98825.13;;;21.98;65.30
48964;BME280;34776;48.180;16.420;2023-08-01T04:35:43;98825.47;;;22.03;65.16
48964;BME280;34776;48.180;16.420;2023-08-01T04:38:08;98827.81;;;22.06;65.01
48964;BME280;34776;48.180;16.420;2023-08-01T04:40:35;98827.47;;;22.09;65.00
48964;BME280;34776;48.180;16.420;2023-08-01T04:43:01;98830.84;;;22.12;64.85
48964;BME280;34776;48.180;16.420;2023-08-01T04:45:26;98820.03;;;22.12;64.59
48964;BME280;34776;48.180;16.420;2023-08-01T04:47:52;98813.75;;;22.11;64.49
48964;BME280;34776;48.180;16.420;2023-08-01T04:50:17;98809.19;;;22.12;64.32
48964;BME280;34776;48.180;16.420;2023-08-01T04:52:43;98809.50;;;22.17;64.44
48964;BME280;34776;48.180;16.420;2023-08-01T04:55:08;98811.19;;;22.26;64.33
48964;BME280;34776;48.180;16.420;2023-08-01T04:57:35;98815.13;;;22.38;64.02
48964;BME280;34776;48.180;16.420;2023-08-01T05:00:01;98807.28;;;22.52;63.69
48964;BME280;34776;48.180;16.420;2023-08-01T05:02:27;98810.28;;;22.57;63.74
48964;BME280;34776;48.180;16.420;2023-08-01T05:04:52;98807.75;;;22.55;64.27
48964;BME280;34776;48.180;16.420;2023-08-01T05:07:17;98812.63;;;22.60;64.15
48964;BME280;34776;48.180;16.420;2023-08-01T05:09:42;98806.19;;;22.61;64.56
48964;BME280;34776;48.180;16.420;2023-08-01T05:12:08;98805.25;;;22.54;64.62
48964;BME280;34776;48.180;16.420;2023-08-01T05:14:34;98810.00;;;22.52;65.03
48964;BME280;34776;48.180;16.420;2023-08-01T05:16:59;98804.56;;;22.52;65.49
48964;BME280;34776;48.180;16.420;2023-08-01T05:19:25;98810.66;;;22.54;65.70
48964;BME280;34776;48.180;16.420;2023-08-01T05:21:51;98811.78;;;22.59;65.45
48964;BME280;34776;48.180;16.420;2023-08-01T05:24:17;98801.09;;;22.66;65.26
48964;BME280;34776;48.180;16.420;2023-08-01T05:26:42;98801.31;;;22.79;65.09
48964;BME280;34776;48.180;16.420;2023-08-01T05:29:07;98795.81;;;22.87;64.66
48964;BME280;34776;48.180;16.420;2023-08-01T05:31:33;98798.63;;;22.94;64.70
48964;BME280;34776;48.180;16.420;2023-08-01T05:33:58;98810.63;;;23.00;64.43
48964;BME280;34776;48.180;16.420;2023-08-01T05:36:23;98815.03;;;23.01;64.38
48964;BME280;34776;48.180;16.420;2023-08-01T05:38:49;98817.00;;;23.07;64.48
48964;BME280;34776;48.180;16.420;2023-08-01T05:41:14;98819.38;;;23.10;64.22
48964;BME280;34776;48.180;16.420;2023-08-01T05:43:39;98831.03;;;23.10;64.36
48964;BME280;34776;48.180;16.420;2023-08-01T05:46:05;98812.97;;;23.03;64.46
48964;BME280;34776;48.180;16.420;2023-08-01T05:48:30;98814.69;;;23.04;64.56
48964;BME280;34776;48.180;16.420;2023-08-01T05:50:55;98812.25;;;23.09;64.05
48964;BME280;34776;48.180;16.420;2023-08-01T05:53:21;98817.66;;;23.09;63.76
48964;BME280;34776;48.180;16.420;2023-08-01T05:55:47;98802.72;;;23.13;63.68
48964;BME280;34776;48.180;16.420;2023-08-01T05:58:12;98810.13;;;23.19;63.47
48964;BME280;34776;48.180;16.420;2023-08-01T06:00:38;98819.38;;;23.25;63.02
48964;BME280;34776;48.180;16.420;2023-08-01T06:03:03;98808.34;;;23.26;62.79
48964;BME280;34776;48.180;16.420;2023-08-01T06:05:29;98801.81;;;23.36;62.70
48964;BME280;34776;48.180;16.420;2023-08-01T06:07:55;98806.94;;;23.45;62.41
48964;BME280;34776;48.180;16.420;2023-08-01T06:10:21;98805.38;;;23.51;62.30
48964;BME280;34776;48.180;16.420;2023-08-01T06:12:47;98808.00;;;23.59;61.66
48964;BME280;34776;48.180;16.420;2023-08-01T06:15:12;98814.06;;;23.61;61.29
48964;BME280;34776;48.180;16.420;2023-08-01T06:17:38;98818.00;;;23.59;61.23
48964;BME280;34776;48.180;16.420;2023-08-01T06:20:03;98817.72;;;23.54;61.45
48964;BME280;34776;48.180;16.420;2023-08-01T06:22:30;98820.34;;;23.47;61.74
48964;BME280;34776;48.180;16.420;2023-08-01T06:24:55;98822.22;;;23.46;61.54
48964;BME280;34776;48.180;16.420;2023-08-01T06:27:21;98816.53;;;23.56;61.32
48964;BME280;34776;48.180;16.420;2023-08-01T06:29:46;98814.34;;;23.66;60.86
48964;BME280;34776;48.180;16.420;2023-08-01T06:32:11;98819.66;;;23.75;60.96
48964;BME280;34776;48.180;16.420;2023-08-01T06:34:37;98804.19;;;23.83;60.52
48964;BME280;34776;48.180;16.420;2023-08-01T06:37:03;98809.69;;;23.90;60.13
48964;BME280;34776;48.180;16.420;2023-08-01T06:39:29;98819.81;;;23.96;60.19
48964;BME280;34776;48.180;16.420;2023-08-01T06:41:55;98829.81;;;23.81;60.08
48964;BME280;34776;48.180;16.420;2023-08-01T06:44:20;98833.06;;;23.61;60.12
48964;BME280;34776;48.180;16.420;2023-08-01T06:46:46;98832.88;;;23.48;60.79
48964;BME280;34776;48.180;16.420;2023-08-01T06:49:11;98829.88;;;23.43;61.00
48964;BME280;34776;48.180;16.420;2023-08-01T06:51:36;98839.03;;;23.42;61.08
48964;BME280;34776;48.180;16.420;2023-08-01T06:54:02;98847.84;;;23.44;61.15
48964;BME280;34776;48.180;16.420;2023-08-01T06:56:27;98848.28;;;23.47;61.12
48964;BME280;34776;48.180;16.420;2023-08-01T06:58:52;98854.56;;;23.48;61.14
48964;BME280;34776;48.180;16.420;2023-08-01T07:01:18;98852.88;;;23.47;60.99
48964;BME280;34776;48.180;16.420;2023-08-01T07:03:44;98857.56;;;23.53;61.38
48964;BME280;34776;48.180;16.420;2023-08-01T07:06:10;98852.97;;;23.68;60.99
48964;BME280;34776;48.180;16.420;2023-08-01T07:08:36;98846.28;;;23.79;60.67
48964;BME280;34776;48.180;16.420;2023-08-01T07:11:01;98846.00;;;23.89;60.75
48964;BME280;34776;48.180;16.420;2023-08-01T07:13:27;98842.16;;;23.98;60.97
48964;BME280;34776;48.180;16.420;2023-08-01T07:15:53;98850.75;;;24.02;61.08
48964;BME280;34776;48.180;16.420;2023-08-01T07:18:18;98856.25;;;24.08;61.32
48964;BME280;34776;48.180;16.420;2023-08-01T07:20:44;98845.28;;;24.17;61.09
48964;BME280;34776;48.180;16.420;2023-08-01T07:23:09;98839.56;;;24.26;60.99
48964;BME280;34776;48.180;16.420;2023-08-01T07:25:35;98847.25;;;24.23;60.80
48964;BME280;34776;48.180;16.420;2023-08-01T07:28:00;98849.81;;;24.09;61.24
48964;BME280;34776;48.180;16.420;2023-08-01T07:30:26;98850.31;;;23.98;61.36
48964;BME280;34776;48.180;16.420;2023-08-01T07:32:52;98846.94;;;23.96;61.70
48964;BME280;34776;48.180;16.420;2023-08-01T07:35:18;98845.25;;;23.95;61.68
48964;BME280;34776;48.180;16.420;2023-08-01T07:37:43;98850.31;;;23.98;61.57
48964;BME280;34776;48.180;16.420;2023-08-01T07:40:09;98844.88;;;23.98;61.91
48964;BME280;34776;48.180;16.420;2023-08-01T07:42:35;98855.34;;;24.01;62.05
48964;BME280;34776;48.180;16.420;2023-08-01T07:45:00;98860.13;;;23.99;62.22
48964;BME280;34776;48.180;16.420;2023-08-01T07:47:26;98858.44;;;23.98;62.12
48964;BME280;34776;48.180;16.420;2023-08-01T07:49:51;98858.53;;;24.05;62.48
48964;BME280;34776;48.180;16.420;2023-08-01T07:52:17;98858.41;;;24.13;62.42
48964;BME280;34776;48.180;16.420;2023-08-01T07:54:42;98852.13;;;24.13;62.55
48964;BME280;34776;48.180;16.420;2023-08-01T07:57:07;98848.09;;;24.08;62.71
48964;BME280;34776;48.180;16.420;2023-08-01T07:59:33;98846.69;;;24.13;62.87
48964;BME280;34776;48.180;16.420;2023-08-01T08:01:58;98839.50;;;24.20;62.64
48964;BME280;34776;48.180;16.420;2023-08-01T08:04:37;98843.50;;;24.24;62.75
48964;BME280;34776;48.180;16.420;2023-08-01T08:07:22;98859.41;;;24.27;62.49
48964;BME280;34776;48.180;16.420;2023-08-01T08:09:48;98860.75;;;24.16;62.62
48964;BME280;34776;48.180;16.420;2023-08-01T08:12:13;98858.31;;;24.06;62.89
48964;BME280;34776;48.180;16.420;2023-08-01T08:14:38;98843.66;;;24.01;63.17
48964;BME280;34776;48.180;16.420;2023-08-01T08:17:04;98852.88;;;24.06;63.59
48964;BME280;34776;48.180;16.420;2023-08-01T08:19:29;98844.19;;;24.11;63.16
48964;BME280;34776;48.180;16.420;2023-08-01T08:21:54;98859.34;;;24.20;63.08
48964;BME280;34776;48.180;16.420;2023-08-01T08:24:20;98862.03;;;24.20;62.80
48964;BME280;34776;48.180;16.420;2023-08-01T08:26:45;98853.53;;;24.23;63.15
48964;BME280;34776;48.180;16.420;2023-08-01T08:29:11;98854.38;;;24.24;63.01
48964;BME280;34776;48.180;16.420;2023-08-01T08:31:36;98847.25;;;24.23;62.77
48964;BME280;34776;48.180;16.420;2023-08-01T08:34:01;98839.00;;;24.31;62.76
48964;BME280;34776;48.180;16.420;2023-08-01T08:36:26;98832.13;;;24.50;62.45
48964;BME280;34776;48.180;16.420;2023-08-01T08:38:52;98841.09;;;24.65;61.88
48964;BME280;34776;48.180;16.420;2023-08-01T08:41:49;98839.84;;;24.68;61.44
48964;BME280;34776;48.180;16.420;2023-08-01T08:44:16;98852.06;;;24.57;61.49
48964;BME280;34776;48.180;16.420;2023-08-01T08:46:43;98854.69;;;24.50;61.47
48964;BME280;34776;48.180;16.420;2023-08-01T08:49:09;98856.75;;;24.48;61.45
48964;BME280;34776;48.180;16.420;2023-08-01T08:51:36;98846.75;;;24.49;61.26
48964;BME280;34776;48.180;16.420;2023-08-01T08:54:03;98849.91;;;24.52;60.77
48964;BME280;34776;48.180;16.420;2023-08-01T08:56:30;98847.19;;;24.52;60.64
48964;BME280;34776;48.180;16.420;2023-08-01T08:58:56;98841.75;;;24.52;60.51
48964;BME280;34776;48.180;16.420;2023-08-01T09:01:21;98844.94;;;24.56;60.10
48964;BME280;34776;48.180;16.420;2023-08-01T09:03:47;98836.22;;;24.61;60.09
48964;BME280;34776;48.180;16.420;2023-08-01T09:06:17;98826.41;;;24.60;60.25
48964;BME280;34776;48.180;16.420;2023-08-01T09:08:50;98824.50;;;24.60;60.20
48964;BME280;34776;48.180;16.420;2023-08-01T09:11:17;98819.34;;;24.65;60.28
48964;BME280;34776;48.180;16.420;2023-08-01T09:13:42;98825.34;;;24.61;60.42
48964;BME280;34776;48.180;16.420;2023-08-01T09:16:09;98814.81;;;24.51;60.90
48964;BME280;34776;48.180;16.420;2023-08-01T09:18:35;98816.56;;;24.44;61.06
48964;BME280;34776;48.180;16.420;2023-08-01T09:21:11;98818.84;;;24.40;60.83
48964;BME280;34776;48.180;16.420;2023-08-01T09:23:36;98814.56;;;24.31;60.99
48964;BME280;34776;48.180;16.420;2023-08-01T09:26:12;98814.66;;;24.23;61.10
48964;BME280;34776;48.180;16.420;2023-08-01T09:28:37;98811.53;;;24.19;61.24
48964;BME280;34776;48.180;16.420;2023-08-01T09:31:03;98810.41;;;24.14;61.77
48964;BME280;34776;48.180;16.420;2023-08-01T09:33:37;98803.28;;;24.13;62.03
48964;BME280;34776;48.180;16.420;2023-08-01T09:36:04;98809.63;;;24.20;61.91
48964;BME280;34776;48.180;16.420;2023-08-01T09:38:34;98812.94;;;24.15;61.84
48964;BME280;34776;48.180;16.420;2023-08-01T09:41:00;98802.94;;;24.01;61.74
48964;BME280;34776;48.180;16.420;2023-08-01T09:43:33;98806.03;;;23.83;62.33
48964;BME280;34776;48.180;16.420;2023-08-01T09:46:54;98812.41;;;23.60;63.54
48964;BME280;34776;48.180;16.420;2023-08-01T09:49:21;98814.91;;;23.47;63.98
48964;BME280;34776;48.180;16.420;2023-08-01T09:51:47;98810.03;;;23.27;64.55
48964;BME280;34776;48.180;16.420;2023-08-01T09:54:14;98816.53;;;23.03;65.57
48964;BME280;34776;48.180;16.420;2023-08-01T09:56:40;98819.47;;;22.94;66.32
48964;BME280;34776;48.180;16.420;2023-08-01T09:59:06;98824.31;;;22.83;67.44
48964;BME280;34776;48.180;16.420;2023-08-01T10:01:33;98818.28;;;22.73;68.19
48964;BME280;34776;48.180;16.420;2023-08-01T10:03:59;98824.78;;;22.64;69.08
48964;BME280;34776;48.180;16.420;2023-08-01T10:06:32;98832.09;;;22.55;70.18
48964;BME280;34776;48.180;16.420;2023-08-01T10:08:58;98833.97;;;22.55;70.64
48964;BME280;34776;48.180;16.420;2023-08-01T10:11:23;98833.38;;;22.44;71.50
48964;BME280;34776;48.180;16.420;2023-08-01T10:13:49;98841.38;;;22.38;72.09
48964;BME280;34776;48.180;16.420;2023-08-01T10:16:15;98844.25;;;22.36;72.93
48964;BME280;34776;48.180;16.420;2023-08-01T10:18:42;98852.44;;;22.28;73.80
48964;BME280;34776;48.180;16.420;2023-08-01T10:21:13;98845.50;;;22.17;75.18
48964;BME280;34776;48.180;16.420;2023-08-01T10:23:39;98845.88;;;22.14;76.42
48964;BME280;34776;48.180;16.420;2023-08-01T10:26:07;98842.50;;;22.12;78.56
48964;BME280;34776;48.180;16.420;2023-08-01T10:28:34;98840.53;;;21.98;80.28
48964;BME280;34776;48.180;16.420;2023-08-01T10:31:13;98841.78;;;21.79;82.12
48964;BME280;34776;48.180;16.420;2023-08-01T10:33:41;98837.13;;;21.56;83.54
48964;BME280;34776;48.180;16.420;2023-08-01T10:36:19;98843.25;;;21.34;84.39
48964;BME280;34776;48.180;16.420;2023-08-01T10:38:55;98845.59;;;21.28;86.54
48964;BME280;34776;48.180;16.420;2023-08-01T10:41:34;98848.31;;;21.28;88.25
48964;BME280;34776;48.180;16.420;2023-08-01T10:44:11;98853.38;;;21.40;90.18
48964;BME280;34776;48.180;16.420;2023-08-01T10:47:01;98856.22;;;21.38;91.56
48964;BME280;34776;48.180;16.420;2023-08-01T10:49:41;98853.38;;;21.32;91.65
48964;BME280;34776;48.180;16.420;2023-08-01T10:52:21;98846.97;;;21.16;92.01
48964;BME280;34776;48.180;16.420;2023-08-01T10:54:59;98856.25;;;21.22;93.94
48964;BME280;34776;48.180;16.420;2023-08-01T10:57:26;98856.25;;;21.22;93.34
48964;BME280;34776;48.180;16.420;2023-08-01T10:59:51;98857.28;;;21.21;94.71
48964;BME280;34776;48.180;16.420;2023-08-01T11:02:22;98851.00;;;21.28;95.98
48964;BME280;34776;48.180;16.420;2023-08-01T11:05:01;98847.28;;;21.38;96.59
48964;BME280;34776;48.180;16.420;2023-08-01T11:07:28;98842.22;;;21.43;96.72
48964;BME280;34776;48.180;16.420;2023-08-01T11:10:12;98847.97;;;21.40;96.28
48964;BME280;34776;48.180;16.420;2023-08-01T11:12:43;98851.16;;;21.35;96.52
48964;BME280;34776;48.180;16.420;2023-08-01T11:15:11;98844.25;;;21.33;96.86
48964;BME280;34776;48.180;16.420;2023-08-01T11:17:38;98836.81;;;21.43;98.45
48964;BME280;34776;48.180;16.420;2023-08-01T11:20:11;98840.56;;;21.42;98.88
48964;BME280;34776;48.180;16.420;2023-08-01T11:22:37;98850.84;;;21.38;99.00
48964;BME280;34776;48.180;16.420;2023-08-01T11:25:04;98847.97;;;21.32;98.69
48964;BME280;34776;48.180;16.420;2023-08-01T11:27:29;98833.81;;;21.21;98.74
48964;BME280;34776;48.180;16.420;2023-08-01T11:29:55;98815.88;;;21.20;99.31
48964;BME280;34776;48.180;16.420;2023-08-01T11:32:21;98811.28;;;21.37;100.00
48964;BME280;34776;48.180;16.420;2023-08-01T11:34:48;98817.91;;;21.35;99.28
48964;BME280;34776;48.180;16.420;2023-08-01T11:37:15;98830.22;;;21.29;98.97
48964;BME280;34776;48.180;16.420;2023-08-01T11:39:41;98821.50;;;21.19;98.87
48964;BME280;34776;48.180;16.420;2023-08-01T11:42:14;98824.88;;;21.04;98.83
48964;BME280;34776;48.180;16.420;2023-08-01T11:44:40;98837.72;;;21.02;99.86
48964;BME280;34776;48.180;16.420;2023-08-01T11:47:16;98854.06;;;20.93;100.00
48964;BME280;34776;48.180;16.420;2023-08-01T11:49:49;98855.25;;;20.74;99.24
48964;BME280;34776;48.180;16.420;2023-08-01T11:52:26;98855.22;;;20.65;100.00
48964;BME280;34776;48.180;16.420;2023-08-01T11:54:52;98843.25;;;20.68;100.00
48964;BME280;34776;48.180;16.420;2023-08-01T11:57:19;98831.75;;;20.58;100.00
48964;BME280;34776;48.180;16.420;2023-08-01T11:59:50;98822.00;;;20.65;100.00
48964;BME280;34776;48.180;16.420;2023-08-01T12:02:26;98816.09;;;20.78;100.00
48964;BME280;34776;48.180;16.420;2023-08-01T12:04:57;98812.22;;;20.88;100.00
48964;BME280;34776;48.180;16.420;2023-08-01T12:07:25;98811.38;;;20.88;100.00
48964;BME280;34776;48.180;16.420;2023-08-01T12:09:58;98802.09;;;20.82;100.00
48964;BME280;34776;48.180;16.420;2023-08-01T12:12:26;98804.94;;;20.89;100.00
48964;BME280;34776;48.180;16.420;2023-08-01T12:14:52;98816.63;;;20.90;100.00
48964;BME280;34776;48.180;16.420;2023-08-01T12:17:18;98816.78;;;20.80;100.00
48964;BME280;34776;48.180;16.420;2023-08-01T12:19:44;98825.38;;;20.75;100.00
48964;BME280;34776;48.180;16.420;2023-08-01T12:22:09;98827.41;;;20.65;100.00
48964;BME280;34776;48.180;16.420;2023-08-01T12:24:35;98826.16;;;20.51;100.00
48964;BME280;34776;48.180;16.420;2023-08-01T12:27:04;98810.16;;;20.50;100.00
48964;BME280;34776;48.180;16.420;2023-08-01T12:29:29;98814.53;;;20.51;100.00
48964;BME280;34776;48.180;16.420;2023-08-01T12:31:55;98814.91;;;20.64;100.00
48964;BME280;34776;48.180;16.420;2023-08-01T12:34:20;98816.25;;;20.68;100.00
48964;BME280;34776;48.180;16.420;2023-08-01T12:36:47;98809.84;;;20.69;100.00
48964;BME280;34776;48.180;16.420;2023-08-01T12:39:12;98815.25;;;20.77;100.00
48964;BME280;34776;48.180;16.420;2023-08-01T12:41:38;98818.28;;;20.82;100.00
48964;BME280;34776;48.180;16.420;2023-08-01T12:44:04;98822.34;;;20.78;100.00
48964;BME280;34776;48.180;16.420;2023-08-01T12:46:29;98834.16;;;20.69;100.00
48964;BME280;34776;48.180;16.420;2023-08-01T12:48:55;98837.81;;;20.52;100.00